Time;durP1;ratioP1;P1;durP2;ratioP2;P2;SDS_P1;SDS_P2;PMS_P1;PMS_P2;Temp;Humidity;BMP_temperature;BMP_pressure;BME280_temperature;BME280_humidity;BME280_pressure;Samples;Min_cycle;Max_cycle;Signal;HPM_P1;HPM_P2
2023/11/09 00:01:53;;;;;;;;;2.00;2.00;;;;;15.45;82.38;99753.81;6224675;22;47231;-84
2023/11/09 00:04:18;;;;;;;;;1.25;1.25;;;;;15.46;82.30;99752.03;6248719;22;45461;-85
2023/11/09 00:06:44;;;;;;;;;3.00;3.00;;;;;15.47;82.03;99740.38;6222235;22;44908;-85
2023/11/09 00:09:10;;;;;;;;;1.00;1.00;;;;;15.51;82.42;99745.66;6222029;22;45351;-86
2023/11/09 00:11:35;;;;;;;;;0.00;0.00;;;;;15.52;82.50;99741.16;6221737;22;47942;-85
2023/11/09 00:14:04;;;;;;;;;1.75;0.75;;;;;15.49;82.24;99727.81;6223315;22;44890;-85
2023/11/09 00:16:30;;;;;;;;;2.00;1.00;;;;;15.47;82.97;99729.66;6223095;22;44732;-85
2023/11/09 00:18:56;;;;;;;;;0.00;0.00;;;;;15.43;83.51;99727.97;6224613;22;44809;-85
2023/11/09 00:21:22;;;;;;;;;2.00;2.00;;;;;15.43;84.89;99738.69;6249011;22;46122;-86
2023/11/09 00:23:48;;;;;;;;;1.00;1.00;;;;;15.35;84.42;99734.38;6249888;22;45460;-85
2023/11/09 00:26:14;;;;;;;;;0.75;0.75;;;;;15.33;85.24;99728.19;6248998;22;44868;-85
2023/11/09 00:28:39;;;;;;;;;0.50;0.50;;;;;15.35;85.01;99726.34;6246271;22;45392;-85
2023/11/09 00:31:04;;;;;;;;;2.00;2.00;;;;;15.37;84.96;99719.16;6219469;22;50769;-85
2023/11/09 00:33:30;;;;;;;;;1.00;1.00;;;;;15.42;84.62;99716.38;6247268;22;45346;-86
2023/11/09 00:35:56;;;;;;;;;1.67;1.33;;;;;15.43;84.79;99706.53;6248727;22;45307;-86
2023/11/09 00:38:24;;;;;;;;;1.00;1.00;;;;;15.63;85.57;99711.44;6248751;22;45656;-85
2023/11/09 00:40:51;;;;;;;;;0.50;0.50;;;;;15.38;85.41;99728.94;6220671;22;47253;-85
2023/11/09 00:43:17;;;;;;;;;1.00;1.00;;;;;15.36;85.90;99716.50;6222662;22;45662;-85
2023/11/09 00:45:42;;;;;;;;;0.75;0.75;;;;;15.31;86.63;99702.31;6250246;22;45736;-85
2023/11/09 00:48:07;;;;;;;;;2.00;0.00;;;;;15.28;86.55;99707.75;6249280;22;45364;-85
2023/11/09 00:50:32;;;;;;;;;0.50;0.50;;;;;15.25;86.86;99713.16;6250527;22;47289;-86
2023/11/09 00:52:58;;;;;;;;;1.00;1.00;;;;;15.18;87.44;99701.72;6250654;22;45396;-86
2023/11/09 00:55:24;;;;;;;;;1.00;1.00;;;;;15.18;88.74;99707.94;6221681;22;45353;-87
2023/11/09 00:57:49;;;;;;;;;1.00;1.00;;;;;15.14;88.27;99700.00;6220634;22;45442;-85
2023/11/09 01:00:15;;;;;;;;;1.00;1.00;;;;;15.25;87.59;99699.78;6221210;22;47215;-85
2023/11/09 01:02:42;;;;;;;;;0.25;0.25;;;;;15.21;87.60;99690.94;6221068;22;44934;-85
2023/11/09 01:05:09;;;;;;;;;1.00;1.00;;;;;15.28;86.85;99689.00;6220975;22;44851;-85
2023/11/09 01:07:35;;;;;;;;;0.00;0.00;;;;;15.26;87.03;99688.16;6223488;22;45274;-85
2023/11/09 01:10:00;;;;;;;;;1.00;1.00;;;;;15.25;86.93;99683.69;6222016;22;47213;-86
2023/11/09 01:13:05;;;;;;;;;1.75;0.00;;;;;15.58;86.36;99703.50;6249690;22;45311;-85
2023/11/09 01:15:30;;;;;;;;;1.00;1.00;;;;;15.37;86.80;99692.38;6220488;22;45304;-84
2023/11/09 01:18:14;;;;;;;;;0.00;0.00;;;;;15.59;86.01;99682.03;6248101;22;45244;-85
2023/11/09 01:20:40;;;;;;;;;0.75;0.75;;;;;15.38;86.61;99688.75;6219508;22;47669;-84
2023/11/09 01:23:09;;;;;;;;;2.00;0.00;;;;;15.39;86.39;99679.81;6220530;22;45341;-86
2023/11/09 01:25:36;;;;;;;;;0.00;0.00;;;;;15.53;86.42;99686.63;6221639;22;45412;-85
2023/11/09 01:28:02;;;;;;;;;0.50;0.50;;;;;15.39;86.53;99679.81;6219849;22;45626;-85
2023/11/09 01:30:29;;;;;;;;;0.75;0.50;;;;;15.36;86.65;99674.50;6218456;22;47563;-85
2023/11/09 01:32:54;;;;;;;;;0.00;0.00;;;;;15.31;87.42;99681.78;6221439;22;45344;-85
2023/11/09 01:35:19;;;;;;;;;0.00;0.00;;;;;15.32;87.72;99672.81;6221500;22;45334;-84
2023/11/09 01:37:45;;;;;;;;;0.25;0.25;;;;;15.29;87.31;99667.56;6222707;22;45375;-85
2023/11/09 01:40:14;;;;;;;;;0.00;0.00;;;;;15.29;87.48;99667.56;6250284;22;46445;-85
2023/11/09 01:42:43;;;;;;;;;0.00;0.00;;;;;15.42;88.42;99667.28;6222190;22;45506;-85
2023/11/09 01:45:08;;;;;;;;;0.00;0.00;;;;;15.24;87.99;99664.06;6223295;22;45273;-85
2023/11/09 01:47:34;;;;;;;;;2.00;0.00;;;;;15.25;87.96;99664.94;6198069;22;45288;-86
2023/11/09 01:50:02;;;;;;;;;0.00;0.00;;;;;15.38;87.91;99667.31;6249203;22;45391;-85
2023/11/09 01:52:29;;;;;;;;;0.00;0.00;;;;;15.38;88.08;99672.69;6220875;22;45344;-85
2023/11/09 01:54:55;;;;;;;;;0.00;0.00;;;;;15.34;87.87;99670.13;6221150;22;45298;-85
2023/11/09 01:57:21;;;;;;;;;1.00;0.00;;;;;15.28;88.07;99663.09;6195768;22;45340;-84
2023/11/09 01:59:48;;;;;;;;;0.50;0.00;;;;;15.31;88.26;99671.06;6195104;22;47127;-85
2023/11/09 02:02:14;;;;;;;;;0.00;0.00;;;;;15.34;87.94;99662.94;6247702;22;45646;-79
2023/11/09 02:04:40;;;;;;;;;0.00;0.00;;;;;15.34;87.61;99673.66;6264609;22;45297;-80
2023/11/09 02:07:06;;;;;;;;;0.00;0.00;;;;;15.31;87.58;99662.13;6265072;22;44808;-80
2023/11/09 02:09:31;;;;;;;;;0.00;0.00;;;;;15.30;88.28;99661.25;6264454;22;47115;-80
2023/11/09 02:11:57;;;;;;;;;0.00;0.00;;;;;15.30;88.83;99658.59;6292258;22;44814;-80
2023/11/09 02:14:23;;;;;;;;;0.25;0.25;;;;;15.25;89.44;99655.16;6264618;22;45176;-80
2023/11/09 02:16:49;;;;;;;;;1.00;0.00;;;;;15.31;88.17;99675.53;6259077;22;44901;-81
2023/11/09 02:19:19;;;;;;;;;0.00;0.00;;;;;15.51;87.77;99683.13;6235989;22;47085;-80
2023/11/09 02:21:48;;;;;;;;;0.00;0.00;;;;;15.37;86.47;99678.97;6289084;22;44787;-80
2023/11/09 02:24:14;;;;;;;;;0.75;0.75;;;;;15.15;86.59;99675.00;6263029;22;44773;-81
2023/11/09 02:26:47;;;;;;;;;2.00;1.00;;;;;15.26;86.13;99667.59;6258160;22;44837;-80
2023/11/09 02:29:14;;;;;;;;;1.25;1.25;;;;;15.07;86.41;99667.13;6236826;22;47012;-80
2023/11/09 02:31:40;;;;;;;;;1.75;1.00;;;;;15.10;85.75;99669.72;6291366;22;44795;-80
2023/11/09 02:34:11;;;;;;;;;3.00;1.00;;;;;15.28;85.51;99665.78;6291390;22;45256;-80
2023/11/09 02:36:38;;;;;;;;;2.00;1.00;;;;;15.26;85.23;99656.88;6258952;22;44852;-79
2023/11/09 02:39:03;;;;;;;;;3.00;1.50;;;;;15.28;84.97;99648.81;6233612;22;47316;-81
2023/11/09 02:41:29;;;;;;;;;1.00;1.00;;;;;15.33;84.49;99655.84;6257566;22;44937;-80
2023/11/09 02:43:54;;;;;;;;;2.00;1.00;;;;;15.33;84.35;99654.94;6284105;22;44976;-80
2023/11/09 02:46:19;;;;;;;;;1.75;1.75;;;;;15.33;84.11;99652.25;6289681;22;44907;-79
2023/11/09 02:48:46;;;;;;;;;2.00;2.00;;;;;15.44;84.26;99670.78;6290046;22;45146;-79
2023/11/09 02:51:12;;;;;;;;;1.25;1.00;;;;;15.46;83.48;99677.00;6263487;22;45491;-79
2023/11/09 02:53:38;;;;;;;;;0.75;0.75;;;;;15.43;83.57;99663.66;6291235;22;44753;-79
2023/11/09 02:56:05;;;;;;;;;2.75;2.25;;;;;15.45;83.24;99672.53;6263686;22;44816;-80
2023/11/09 02:58:33;;;;;;;;;2.00;1.25;;;;;15.43;83.22;99674.38;6292012;22;45642;-80
2023/11/09 03:00:58;;;;;;;;;0.75;0.75;;;;;15.42;82.83;99683.34;6256925;22;44952;-81
2023/11/09 03:03:24;;;;;;;;;2.00;1.25;;;;;15.42;82.61;99675.31;6278773;22;44881;-82
2023/11/09 03:05:52;;;;;;;;;2.00;2.00;;;;;15.43;82.56;99680.63;6263336;22;44853;-81
2023/11/09 03:08:18;;;;;;;;;2.00;2.00;;;;;15.39;82.58;99678.91;6291824;22;45339;-82
2023/11/09 03:10:43;;;;;;;;;2.67;2.67;;;;;15.37;82.10;99686.09;6292229;22;44703;-81
2023/11/09 03:16:30;;;;;;;;;2.00;2.00;;;;;15.38;81.67;99672.69;6289925;22;44989;-80
2023/11/09 03:18:56;;;;;;;;;0.50;0.50;;;;;15.39;81.42;99669.09;6291162;22;45165;-80
2023/11/09 03:21:22;;;;;;;;;2.00;2.00;;;;;15.39;81.07;99669.09;6290341;22;44913;-81
2023/11/09 03:23:49;;;;;;;;;2.00;2.00;;;;;15.39;81.00;99678.91;6257417;22;44883;-80
2023/11/09 03:26:16;;;;;;;;;1.67;1.00;;;;;15.52;80.13;99679.53;6235461;22;44936;-81
2023/11/09 03:28:42;;;;;;;;;4.33;2.00;;;;;15.30;79.60;99684.50;6256704;22;46949;-81
2023/11/09 03:31:07;;;;;;;;;2.00;2.00;;;;;15.26;79.23;99686.34;6233803;22;45023;-81
2023/11/09 03:33:33;;;;;;;;;1.00;1.00;;;;;15.33;79.15;99689.75;6262839;22;44847;-80
2023/11/09 03:35:59;;;;;;;;;2.33;0.00;;;;;15.26;78.42;99683.69;6291660;22;44865;-80
2023/11/09 03:38:25;;;;;;;;;0.00;0.00;;;;;15.21;78.50;99693.63;6257983;22;45320;-80
2023/11/09 03:40:50;;;;;;;;;3.00;1.50;;;;;15.20;78.12;99689.16;6284182;22;44887;-81
2023/11/09 03:43:15;;;;;;;;;1.00;1.00;;;;;15.11;78.15;99673.31;6263867;22;44969;-80
2023/11/09 03:45:41;;;;;;;;;3.67;2.00;;;;;15.11;78.50;99676.88;6258234;22;44859;-82
2023/11/09 03:48:07;;;;;;;;;1.00;1.00;;;;;15.04;78.84;99677.03;6233041;22;46955;-80
2023/11/09 03:50:32;;;;;;;;;1.50;0.50;;;;;15.10;78.84;99675.09;6291660;22;45200;-80
2023/11/09 03:52:58;;;;;;;;;1.50;1.00;;;;;15.08;79.05;99673.38;6290633;22;44762;-80
2023/11/09 03:55:23;;;;;;;;;3.00;1.00;;;;;15.05;79.30;99676.09;6291151;22;44741;-80
2023/11/09 03:57:49;;;;;;;;;1.00;1.00;;;;;15.07;79.52;99671.59;6257237;22;46987;-81
2023/11/09 04:00:14;;;;;;;;;1.00;0.75;;;;;15.02;79.76;99670.81;6222776;22;44670;-81
2023/11/09 04:02:42;;;;;;;;;2.00;1.75;;;;;15.21;79.75;99680.22;6236471;22;44791;-80
2023/11/09 04:05:11;;;;;;;;;1.25;1.25;;;;;15.09;79.63;99669.75;6256828;22;45680;-81
2023/11/09 04:07:45;;;;;;;;;0.00;0.00;;;;;15.29;79.49;99677.34;6259388;22;45711;-80
2023/11/09 04:10:16;;;;;;;;;0.50;0.50;;;;;15.13;79.79;99683.06;6232396;22;44932;-81
2023/11/09 04:12:43;;;;;;;;;1.00;1.00;;;;;15.08;79.68;99674.25;6233204;22;45089;-80
2023/11/09 04:15:09;;;;;;;;;2.50;1.25;;;;;15.13;79.47;99684.88;6260432;22;44867;-80
2023/11/09 04:17:35;;;;;;;;;2.00;2.00;;;;;15.10;79.34;99679.56;6234225;22;45110;-81
2023/11/09 04:20:00;;;;;;;;;2.75;1.00;;;;;15.11;79.46;99686.72;6231741;22;45282;-80
2023/11/09 04:22:26;;;;;;;;;1.50;1.50;;;;;15.13;79.41;99692.91;6256874;22;44854;-80
2023/11/09 04:24:52;;;;;;;;;3.25;2.00;;;;;15.19;79.39;99693.66;6233200;22;45293;-80
2023/11/09 04:27:18;;;;;;;;;1.75;1.75;;;;;15.10;79.49;99695.63;6233231;22;44922;-80
2023/11/09 04:29:43;;;;;;;;;2.50;2.00;;;;;15.14;79.50;99706.25;6258616;22;44787;-80
2023/11/09 04:32:09;;;;;;;;;3.00;2.00;;;;;15.16;79.53;99703.53;6232101;22;44768;-80
2023/11/09 04:34:36;;;;;;;;;1.00;1.00;;;;;15.21;79.45;99720.41;6262052;22;44726;-80
2023/11/09 04:37:03;;;;;;;;;0.25;0.00;;;;;15.31;79.70;99713.03;6260137;22;45156;-80
2023/11/09 04:39:29;;;;;;;;;3.75;1.50;;;;;15.17;79.21;99710.69;6259102;22;44882;-79
2023/11/09 04:41:58;;;;;;;;;3.50;1.25;;;;;15.30;79.19;99712.16;6232748;22;44758;-79
2023/11/09 04:44:28;;;;;;;;;1.00;1.00;;;;;15.12;79.20;99704.53;6255596;22;44700;-79
2023/11/09 04:46:55;;;;;;;;;1.00;1.00;;;;;15.09;78.97;99712.59;6231745;22;47057;-80
2023/11/09 04:49:24;;;;;;;;;3.00;1.75;;;;;15.11;79.19;99729.56;6233714;22;44809;-81
2023/11/09 04:51:51;;;;;;;;;2.75;2.75;;;;;15.14;79.07;99727.66;6260491;22;44823;-80
2023/11/09 04:54:19;;;;;;;;;2.00;2.00;;;;;15.06;78.81;99726.06;6259961;22;44726;-79
2023/11/09 05:07:31;;;;;;;;;3.67;2.00;;;;;14.74;78.64;99724.91;6258402;22;44818;-80
2023/11/09 05:09:57;;;;;;;;;4.33;4.33;;;;;14.72;78.77;99732.09;6232609;22;44756;-80
2023/11/09 05:12:24;;;;;;;;;2.00;1.00;;;;;14.69;79.15;99725.00;6233280;22;44867;-80
2023/11/09 05:14:51;;;;;;;;;6.50;3.00;;;;;14.54;79.24;99735.94;6233460;22;44833;-79
2023/11/09 05:17:16;;;;;;;;;6.00;2.50;;;;;14.50;79.47;99739.59;6233774;22;47327;-79
2023/11/09 05:19:43;;;;;;;;;2.00;2.00;;;;;14.54;79.76;99735.94;6233629;22;44697;-80
2023/11/09 05:22:09;;;;;;;;;2.75;2.00;;;;;14.45;79.48;99733.47;6261146;22;44805;-80
2023/11/09 05:24:39;;;;;;;;;2.00;2.00;;;;;14.59;79.77;99739.47;6261032;22;44728;-80
2023/11/09 05:27:07;;;;;;;;;5.00;3.50;;;;;14.41;80.00;99736.19;6259927;22;45267;-80
2023/11/09 05:29:33;;;;;;;;;4.25;3.00;;;;;14.37;80.01;99728.25;6231960;22;45009;-81
2023/11/09 05:31:59;;;;;;;;;2.00;1.00;;;;;14.36;79.91;99729.13;6232104;22;44802;-80
2023/11/09 05:34:26;;;;;;;;;3.00;2.33;;;;;14.50;79.99;99728.91;6231109;22;44756;-79
2023/11/09 05:36:53;;;;;;;;;5.00;1.67;;;;;14.42;80.13;99729.03;6230329;22;47030;-79
2023/11/09 05:39:18;;;;;;;;;2.67;2.67;;;;;14.43;80.15;99732.59;6259214;22;44901;-79
2023/11/09 05:41:44;;;;;;;;;4.00;1.00;;;;;14.38;80.38;99730.91;6258524;22;44771;-80
2023/11/09 05:44:09;;;;;;;;;5.00;3.00;;;;;14.39;80.30;99739.78;6231791;22;44939;-81
2023/11/09 05:46:36;;;;;;;;;3.00;2.00;;;;;14.34;80.26;99728.28;6258577;22;45172;-79
2023/11/09 05:49:04;;;;;;;;;2.67;2.67;;;;;14.44;80.44;99740.63;6231454;22;44991;-79
2023/11/09 05:51:30;;;;;;;;;2.67;2.33;;;;;14.28;80.36;99731.97;6232737;22;44689;-79
2023/11/09 05:53:57;;;;;;;;;7.67;3.00;;;;;14.30;80.06;99742.63;6260508;22;44766;-79
2023/11/09 05:56:24;;;;;;;;;5.33;2.00;;;;;14.32;80.03;99746.16;6260070;22;45337;-80
2023/11/09 05:58:55;;;;;;;;;5.00;4.00;;;;;14.52;79.92;99745.81;6260757;22;45429;-80
2023/11/09 06:01:30;;;;;;;;;2.67;2.67;;;;;14.38;79.96;99746.03;6234393;22;44744;-80
2023/11/09 06:04:00;;;;;;;;;2.00;2.00;;;;;14.50;79.75;99744.94;6259672;22;44749;-79
2023/11/09 06:06:26;;;;;;;;;5.00;3.00;;;;;14.36;79.54;99753.22;6231943;22;47215;-79
2023/11/09 06:08:51;;;;;;;;;3.00;3.00;;;;;14.38;79.66;99756.75;6232979;22;44840;-81
2023/11/09 06:11:17;;;;;;;;;2.00;2.00;;;;;14.38;79.74;99756.75;6231524;22;45256;-81
2023/11/09 06:13:42;;;;;;;;;2.00;1.00;;;;;14.35;79.54;99762.16;6232733;22;45289;-81
2023/11/09 06:16:08;;;;;;;;;1.33;1.33;;;;;14.37;79.64;99765.69;6230318;22;46664;-80
2023/11/09 06:18:34;;;;;;;;;1.67;1.67;;;;;14.31;79.39;99771.16;6229623;22;45157;-80
2023/11/09 06:21:02;;;;;;;;;3.33;2.00;;;;;14.29;79.45;99770.28;6231473;22;44783;-79
2023/11/09 06:23:28;;;;;;;;;7.00;2.67;;;;;14.32;79.52;99780.91;6259690;22;45238;-80
2023/11/09 06:25:55;;;;;;;;;3.33;3.00;;;;;14.33;79.39;99786.25;6233276;22;47353;-79
2023/11/09 06:28:22;;;;;;;;;2.67;2.67;;;;;14.39;79.15;99791.50;6208010;22;45016;-81
2023/11/09 06:30:47;;;;;;;;;6.33;2.67;;;;;14.37;79.06;99787.09;6232019;22;45290;-81
2023/11/09 06:33:13;;;;;;;;;2.00;2.00;;;;;14.37;79.01;99784.41;6232181;22;45436;-80
2023/11/09 06:35:40;;;;;;;;;3.00;1.67;;;;;14.62;79.03;99802.75;6232406;22;46994;-81
2023/11/09 06:38:08;;;;;;;;;2.00;2.00;;;;;14.49;78.54;99797.59;6259634;22;44803;-80
2023/11/09 06:40:37;;;;;;;;;4.33;1.00;;;;;14.62;78.72;99808.97;6260971;22;44821;-81
2023/11/09 06:43:03;;;;;;;;;2.67;1.67;;;;;14.40;78.52;99801.31;6234403;22;44760;-81
2023/11/09 06:45:31;;;;;;;;;3.67;1.67;;;;;14.59;78.39;99809.91;6261613;22;45002;-81
2023/11/09 06:47:56;;;;;;;;;4.00;2.33;;;;;14.42;78.19;99806.59;6261859;22;44721;-80
2023/11/09 06:50:23;;;;;;;;;3.00;1.67;;;;;14.51;78.36;99814.50;6263107;22;45243;-80
2023/11/09 06:52:51;;;;;;;;;3.33;2.67;;;;;14.36;78.11;99814.72;6231958;22;44882;-80
2023/11/09 06:55:16;;;;;;;;;3.00;2.25;;;;;14.34;78.16;99813.88;6234713;22;45344;-80
2023/11/09 06:57:44;;;;;;;;;2.00;2.00;;;;;14.43;78.31;99816.41;6232420;22;44942;-81
2023/11/09 07:00:11;;;;;;;;;2.00;1.75;;;;;14.35;78.06;99821.00;6233757;22;44825;-81
2023/11/09 07:02:40;;;;;;;;;4.50;1.25;;;;;14.48;77.85;99814.56;6243043;22;44761;-81
2023/11/09 07:05:07;;;;;;;;;3.50;2.00;;;;;14.27;77.87;99823.78;6233191;22;46831;-80
2023/11/09 07:07:34;;;;;;;;;3.33;3.00;;;;;14.26;78.12;99822.03;6207729;22;44846;-81
2023/11/09 07:09:59;;;;;;;;;3.00;3.00;;;;;14.09;78.05;99824.97;6261262;22;44792;-80
2023/11/09 07:12:26;;;;;;;;;1.00;1.00;;;;;14.07;78.43;99821.44;6234939;22;44878;-80
2023/11/09 07:14:52;;;;;;;;;3.33;2.33;;;;;13.95;78.48;99826.97;6235094;22;45663;-80
2023/11/09 07:17:19;;;;;;;;;3.67;2.67;;;;;14.05;78.42;99830.38;6233839;22;44852;-80
2023/11/09 07:19:47;;;;;;;;;4.00;3.00;;;;;14.02;78.76;99839.34;6234792;22;44844;-81
2023/11/09 07:22:16;;;;;;;;;2.33;1.00;;;;;14.03;78.46;99840.22;6261172;22;44804;-82
2023/11/09 07:24:44;;;;;;;;;4.67;4.33;;;;;14.13;78.67;99848.06;6262529;22;45390;-80
2023/11/09 07:27:10;;;;;;;;;2.00;2.00;;;;;14.05;78.68;99849.97;6234609;22;44881;-81
2023/11/09 07:29:36;;;;;;;;;5.00;3.00;;;;;14.01;78.55;99848.25;6261424;22;44795;-80
2023/11/09 07:32:02;;;;;;;;;3.00;3.00;;;;;14.02;78.81;99850.03;6261126;22;44781;-80
2023/11/09 07:34:30;;;;;;;;;3.00;3.00;;;;;14.03;78.65;99856.25;6234273;22;47478;-81
2023/11/09 07:36:59;;;;;;;;;6.33;3.67;;;;;14.07;78.81;99855.31;6262445;22;44725;-80
2023/11/09 07:39:27;;;;;;;;;2.33;2.00;;;;;14.09;78.84;99862.41;6260489;22;44788;-80
2023/11/09 07:42:00;;;;;;;;;4.33;3.00;;;;;14.36;78.83;99857.53;6236141;22;44848;-80
2023/11/09 07:44:30;;;;;;;;;3.33;2.00;;;;;14.27;79.27;99855.00;6262178;22;45025;-79
2023/11/09 07:46:57;;;;;;;;;4.00;4.00;;;;;14.18;79.16;99856.91;6233620;22;44888;-80
2023/11/09 07:49:25;;;;;;;;;3.00;3.00;;;;;14.20;78.87;99857.78;6261261;22;44863;-80
2023/11/09 07:51:53;;;;;;;;;3.00;2.00;;;;;14.29;79.15;99843.38;6237174;22;44870;-81
2023/11/09 07:54:21;;;;;;;;;5.67;4.33;;;;;14.40;78.77;99836.09;6235640;22;47276;-81
2023/11/09 07:57:04;;;;;;;;;7.67;6.33;;;;;14.75;78.33;99855.16;6235085;22;45174;-80
2023/11/09 07:59:30;;;;;;;;;5.00;4.33;;;;;14.58;78.86;99856.34;6208636;22;44845;-80
2023/11/09 08:01:57;;;;;;;;;7.67;3.00;;;;;14.84;78.27;99841.59;6228843;22;44940;-81
2023/11/09 08:04:27;;;;;;;;;7.00;3.67;;;;;15.01;78.19;99852.03;6265559;22;45193;-82
2023/11/09 08:06:54;;;;;;;;;3.33;3.33;;;;;14.87;77.40;99857.63;6268107;22;44865;-81
2023/11/09 08:09:31;;;;;;;;;3.67;3.00;;;;;15.10;77.30;99864.34;6239063;22;44904;-81
2023/11/09 08:32:57;;;;;;;;;3.00;3.00;;;;;15.76;73.34;99855.91;6264116;22;44856;-81
2023/11/09 08:36:23;;;;;;;;;4.00;4.00;;;;;15.57;73.23;99825.00;6228167;22;44828;-84
2023/11/09 08:38:50;;;;;;;;;6.00;3.33;;;;;15.57;72.93;99854.50;6136643;23;44870;-83
2023/11/09 08:41:57;;;;;;;;;3.67;2.00;;;;;15.66;73.46;99857.00;6166774;23;45207;-84
2023/11/09 08:44:39;;;;;;;;;4.33;2.67;;;;;15.43;72.65;99833.38;6263127;22;45326;-84
2023/11/09 08:48:05;;;;;;;;;;;;;;;;;;;;;
2023/11/09 08:50:41;;;;;;;;;5.00;4.00;;;;;15.85;72.37;99811.91;6166180;23;65405;-85
2023/11/09 08:53:18;;;;;;;;;7.00;4.67;;;;;16.03;70.71;99821.34;6164899;23;47424;-85
2023/11/09 09:13:09;;;;;;;;;4.00;2.67;;;;;16.05;70.27;99818.63;6227435;22;45022;-85
2023/11/09 09:26:26;;;;;;;;;6.33;4.00;;;;;15.93;70.73;99776.91;5962120;23;44946;-83
2023/11/09 09:29:31;;;;;;;;;4.33;3.00;;;;;16.18;70.31;99809.41;5964160;23;44984;-83
2023/11/09 09:35:43;;;;;;;;;5.67;5.00;;;;;16.17;70.89;99813.84;5756755;24;45019;-81
2023/11/09 09:41:40;;;;;;;;;6.67;4.00;;;;;16.51;70.39;99813.03;5754477;24;45024;-85
2023/11/09 09:44:23;;;;;;;;;;;;;;;;;;;;;
2023/11/09 09:46:55;;;;;;;;;3.00;3.00;;;;;16.58;69.67;99801.25;5746209;24;72578;-84
2023/11/09 09:49:22;;;;;;;;;9.00;4.00;;;;;16.36;69.60;99795.53;5753435;24;44802;-81
2023/11/09 09:51:49;;;;;;;;;9.67;4.67;;;;;16.51;69.34;99799.63;5855748;24;44827;-81
2023/11/09 09:54:31;;;;;;;;;9.67;5.00;;;;;16.42;69.59;99764.09;5856810;24;46894;-80
2023/11/09 09:57:05;;;;;;;;;4.67;4.67;;;;;16.48;69.57;99798.81;5924381;23;44777;-81
2023/11/09 09:59:32;;;;;;;;;5.33;5.33;;;;;16.56;69.88;99799.50;5960274;23;44768;-81
2023/11/09 10:02:36;;;;;;;;;;;;;;;;;;;;;
2023/11/09 10:05:46;;;;;;;;;4.67;4.67;;;;;16.75;68.72;99778.44;6056214;23;74865;-81
2023/11/09 10:08:23;;;;;;;;;2.67;2.67;;;;;16.52;68.88;99761.13;5890707;24;45442;-81
2023/11/09 10:14:18;;;;;;;;;4.00;2.00;;;;;16.55;68.54;99769.09;6024268;23;45307;-80
2023/11/09 10:19:19;;;;;;;;;4.75;4.00;;;;;16.35;68.26;99760.69;6176753;22;45761;-81
2023/11/09 10:21:51;;;;;;;;;6.00;4.33;;;;;16.64;68.50;99789.44;6204785;22;44660;-81
2023/11/09 10:24:26;;;;;;;;;10.67;7.67;;;;;16.70;68.84;99791.09;6234830;22;44845;-82
2023/11/09 10:26:51;;;;;;;;;5.33;4.00;;;;;16.37;68.25;99766.88;6232028;22;45633;-80
2023/11/09 10:49:38;;;;;;;;;2.00;2.00;;;;;17.10;67.53;99760.50;6229467;22;47112;-82
2023/11/09 10:52:14;;;;;;;;;6.33;3.33;;;;;16.66;67.87;99714.25;6109857;23;45312;-81
2023/11/09 10:54:48;;;;;;;;;3.67;2.00;;;;;16.83;68.02;99738.88;6130390;22;44918;-82
2023/11/09 10:57:27;;;;;;;;;3.00;3.00;;;;;16.82;68.45;99758.56;6199042;22;44866;-82
2023/11/09 10:59:55;;;;;;;;;3.00;3.00;;;;;16.65;67.84;99712.50;6201333;22;45493;-80
2023/11/09 11:02:27;;;;;;;;;5.00;5.00;;;;;16.91;68.03;99747.59;6197608;22;45239;-83
2023/11/09 11:05:10;;;;;;;;;5.75;3.25;;;;;16.85;67.65;99711.97;6197323;22;44850;-83
2023/11/09 11:08:26;;;;;;;;;3.25;2.00;;;;;16.77;67.83;99706.78;6194876;22;44976;-85
2023/11/09 11:10:51;;;;;;;;;3.25;3.25;;;;;16.85;67.93;99731.66;6225937;22;46162;-84
2023/11/09 11:13:21;;;;;;;;;8.75;6.00;;;;;16.83;68.31;99717.38;6201022;22;45180;-83
2023/11/09 11:16:22;;;;;;;;;6.50;6.25;;;;;17.14;67.85;99735.31;6228579;22;44878;-82
2023/11/09 11:19:16;;;;;;;;;4.25;3.25;;;;;17.21;68.25;99734.22;6198785;22;44846;-82
2023/11/09 11:22:37;;;;;;;;;5.75;4.25;;;;;17.30;68.19;99725.00;6224891;22;45348;-82
2023/11/09 11:25:28;;;;;;;;;4.75;3.75;;;;;17.35;68.58;99725.72;6223838;22;44812;-82
2023/11/09 11:27:57;;;;;;;;;4.00;2.75;;;;;16.99;69.22;99713.34;6235448;22;44776;-84
2023/11/09 11:30:36;;;;;;;;;5.25;4.75;;;;;17.18;69.41;99702.03;6233896;22;45186;-82
2023/11/09 11:52:23;;;;;;;;;3.00;3.00;;;;;17.74;67.93;99651.00;6212415;22;45807;-90
2023/11/09 11:54:50;;;;;;;;;6.00;2.67;;;;;17.97;66.38;99673.59;6178701;23;44854;-88
2023/11/09 11:57:19;;;;;;;;;3.00;1.00;;;;;17.73;66.52;99654.66;6178978;22;46593;-89
2023/11/09 12:05:30;;;;;;;;;4.00;2.00;;;;;17.79;66.43;99648.16;6145426;22;46891;-89
2023/11/09 12:38:43;;;;;;;;;4.00;3.00;;;;;16.25;77.34;99625.00;6196452;22;46576;-87
2023/11/09 12:44:40;;;;;;;;;4.00;4.00;;;;;16.26;79.87;99586.50;6233836;22;45211;-91
2023/11/09 12:58:08;;;;;;;;;;;;;;;;;;;;;
2023/11/09 13:00:38;;;;;;;;;4.00;4.00;;;;;16.47;80.39;99566.25;5997573;23;71485;-87
2023/11/09 13:10:56;;;;;;;;;3.00;2.67;;;;;16.08;89.41;99566.44;6144148;22;46860;-80
2023/11/09 14:46:39;;;;;;;;;1.25;1.25;;;;;15.09;95.47;99509.09;6234826;22;45314;-85
2023/11/09 14:49:23;;;;;;;;;1.00;1.00;;;;;14.70;95.11;99503.75;6152939;22;46577;-85
2023/11/09 14:56:33;;;;;;;;;1.00;1.00;;;;;14.94;94.89;99515.69;6166956;22;46494;-84
2023/11/09 14:59:14;;;;;;;;;1.00;1.00;;;;;14.38;95.67;99473.22;6167621;23;45202;-84
2023/11/09 15:03:17;;;;;;;;;;;;;;;;;;;;;
2023/11/09 15:05:35;;;;;;;;;1.33;1.33;;;;;14.62;93.20;99503.06;6218055;22;45687;-83
2023/11/09 15:08:40;;;;;;;;;;;;;;;;;;;;;
2023/11/09 15:14:00;;;;;;;;;1.00;1.00;;;;;14.64;91.37;99517.28;6148435;22;46226;-82
2023/11/09 15:16:31;;;;;;;;;0.50;0.50;;;;;14.49;98.02;99514.00;6209981;22;45147;-85
2023/11/09 15:24:34;;;;;;;;;0.25;0.00;;;;;14.44;100.00;99457.06;6205590;22;46716;-85
2023/11/09 15:51:41;;;;;;;;;3.00;2.00;;;;;13.92;92.96;99474.19;4552585;22;38085601;-86
2023/11/09 16:00:33;;;;;;;;;9.00;7.00;;;;;13.68;92.44;99464.88;6168752;22;46336;-84
2023/11/09 16:11:59;;;;;;;;;2.00;2.00;;;;;13.85;91.59;99502.81;6263491;22;45250;-85
2023/11/09 16:18:48;;;;;;;;;1.33;1.33;;;;;13.90;91.66;99497.41;6231210;22;44837;-85
2023/11/09 16:21:46;;;;;;;;;;;;;;;;;;;;;
2023/11/09 16:24:31;;;;;;;;;3.00;3.00;;;;;13.83;92.90;99466.34;6262928;22;74690;-84
2023/11/09 16:27:25;;;;;;;;;1.67;1.67;;;;;13.67;92.07;99420.34;6265161;22;44675;-86
2023/11/09 16:29:56;;;;;;;;;2.67;2.67;;;;;13.43;91.33;99427.03;6236697;22;45176;-85
2023/11/09 16:32:34;;;;;;;;;2.33;2.33;;;;;13.65;90.61;99448.88;6237068;22;44860;-84
2023/11/09 16:34:59;;;;;;;;;1.00;1.00;;;;;13.31;89.93;99445.06;6263167;22;45424;-83
2023/11/09 16:37:47;;;;;;;;;1.00;1.00;;;;;13.62;89.91;99471.19;6264868;22;44748;-85
2023/11/09 16:47:10;;;;;;;;;1.33;1.33;;;;;13.39;89.41;99464.50;6265984;22;45000;-85
2023/11/09 16:49:43;;;;;;;;;2.00;0.00;;;;;13.18;89.64;99475.50;6240560;22;44924;-86
2023/11/09 16:52:28;;;;;;;;;1.67;0.67;;;;;13.25;89.33;99465.59;6237930;22;44914;-86
2023/11/09 16:55:19;;;;;;;;;2.00;2.00;;;;;12.99;89.68;99426.91;6237366;22;45015;-86
2023/11/09 17:01:13;;;;;;;;;3.00;2.00;;;;;12.92;89.21;99434.09;6267495;22;44792;-86
2023/11/09 17:04:58;;;;;;;;;;;;;;;;;;;;;
2023/11/09 17:07:17;;;;;;;;;3.00;3.00;;;;;12.92;88.88;99474.13;6257781;22;44802;-86
2023/11/09 17:09:49;;;;;;;;;1.33;1.33;;;;;13.03;88.06;99465.97;6268046;22;45378;-86
2023/11/09 17:12:24;;;;;;;;;0.00;0.00;;;;;12.97;87.81;99474.97;6267682;22;44890;-85
2023/11/09 17:14:50;;;;;;;;;2.00;2.00;;;;;12.78;87.84;99469.00;6262495;22;44975;-86
2023/11/09 17:17:18;;;;;;;;;1.67;1.67;;;;;12.67;87.74;99456.78;6260138;22;45297;-85
2023/11/09 17:19:44;;;;;;;;;1.00;1.00;;;;;12.52;86.96;99449.84;6259620;22;45412;-86
2023/11/09 17:22:11;;;;;;;;;0.33;0.33;;;;;12.53;86.91;99455.19;6259510;22;44816;-86
2023/11/09 17:28:03;;;;;;;;;0.67;0.67;;;;;12.75;86.64;99469.06;6258843;22;45307;-86
2023/11/09 17:30:29;;;;;;;;;1.33;1.33;;;;;12.47;85.77;99441.06;6229980;22;47933;-85
2023/11/09 17:32:55;;;;;;;;;3.33;2.00;;;;;12.47;85.54;99441.94;6260119;22;44712;-85
2023/11/09 17:35:25;;;;;;;;;2.00;1.00;;;;;12.47;85.20;99465.94;6256785;22;44741;-86
2023/11/09 17:37:52;;;;;;;;;6.00;4.00;;;;;12.52;85.25;99474.75;6231555;22;44827;-85
2023/11/09 17:40:18;;;;;;;;;1.00;1.00;;;;;12.39;85.37;99451.81;6259373;22;45337;-85